East Hope, Idaho
Current Conditions -  °F | °C
As of 9:35 PM on Saturday 22 Nov 2014 (Local Time) from KSZT Reporting Station
Clear Clear  
Wind Chill: 28°   Ceiling: Unl
Heat Index: 36°   Visibility: 10mi
Dew Point: 32°   Wind: 10mph
Humidity: 87%   Direction: 170°S
Pressure: 29.87"   Gusts: NA
Location:  48.3258°N, 116.16°W
Report Text: KSZT 230535Z AUTO 17009KT 10SM CLR 02/00 A2987 RMK AO2
Loading
Personal Weather Stations






























Interactive Weather Map New forecast layout! Learn more

10-Day Weather Forecast

Advertisements
Track Severe Weather on mobile